createdAt,value
2022-09-04T00:00:03.621Z,20.05
2022-09-04T00:03:15.725Z,20.04
2022-09-04T00:06:05.717Z,20.03
2022-09-04T00:08:51.795Z,20.03
2022-09-04T00:11:44.711Z,19.98
2022-09-04T00:14:37.173Z,20.00
2022-09-04T00:17:34.562Z,19.76
2022-09-04T00:20:20.504Z,19.98
2022-09-04T00:23:12.327Z,19.87
2022-09-04T00:26:03.778Z,19.87
2022-09-04T00:28:54.181Z,19.93
2022-09-04T00:31:48.392Z,19.80
2022-09-04T00:34:55.831Z,19.87
2022-09-04T00:38:06.652Z,19.85
2022-09-04T00:41:15.208Z,19.84
2022-09-04T00:44:28.249Z,19.81
2022-09-04T00:47:17.466Z,19.84
2022-09-04T00:50:07.237Z,19.78
2022-09-04T00:53:21.279Z,19.72
2022-09-04T00:56:36.517Z,19.55
2022-09-04T00:59:34.864Z,19.64
2022-09-04T01:02:36.138Z,19.63
2022-09-04T01:05:32.221Z,19.56
2022-09-04T01:08:31.485Z,19.42
2022-09-04T01:11:29.735Z,19.49
2022-09-04T01:14:20.849Z,19.51
2022-09-04T01:17:15.016Z,19.45
2022-09-04T01:20:14.658Z,19.37
2022-09-04T01:23:19.049Z,19.38
2022-09-04T01:26:04.853Z,19.42
2022-09-04T01:29:28.531Z,19.37
2022-09-04T01:32:38.918Z,19.37
2022-09-04T01:35:33.962Z,19.38
2022-09-04T01:38:34.376Z,19.22
2022-09-04T01:41:24.718Z,19.35
2022-09-04T01:44:12.306Z,19.32
2022-09-04T01:47:17.297Z,19.35
2022-09-04T01:50:10.787Z,19.32
2022-09-04T01:53:25.936Z,19.25
2022-09-04T01:56:44.100Z,19.19
2022-09-04T01:59:33.897Z,19.24
2022-09-04T02:02:46.933Z,19.08
2022-09-04T02:05:56.765Z,18.92
2022-09-04T02:08:47.367Z,18.91
2022-09-04T02:11:33.840Z,19.02
2022-09-04T02:14:22.956Z,18.93
2022-09-04T02:17:28.106Z,18.95
2022-09-04T02:20:32.671Z,18.93
2022-09-04T02:23:30.089Z,18.97
2022-09-04T02:26:42.970Z,18.98
2022-09-04T02:29:47.796Z,18.88
2022-09-04T02:32:40.152Z,19.00
2022-09-04T02:35:50.971Z,18.99
2022-09-04T02:38:55.093Z,18.98
2022-09-04T02:42:03.916Z,18.85
2022-09-04T02:45:01.435Z,18.87
2022-09-04T02:47:52.809Z,18.85
2022-09-04T02:51:13.804Z,18.61
2022-09-04T02:54:09.875Z,18.71
2022-09-04T02:57:17.607Z,18.78
2022-09-04T03:00:18.348Z,18.77
2022-09-04T03:03:18.612Z,18.76
2022-09-04T03:06:14.646Z,18.75
2022-09-04T03:09:06.625Z,18.70
2022-09-04T03:12:36.547Z,18.74
2022-09-04T03:15:28.331Z,18.62
2022-09-04T03:18:31.040Z,18.78
2022-09-04T03:21:24.296Z,18.68
2022-09-04T03:24:19.541Z,18.78
2022-09-04T03:27:08.843Z,18.73
2022-09-04T03:30:02.045Z,18.76
2022-09-04T03:33:03.821Z,18.59
2022-09-04T03:36:11.904Z,18.59
2022-09-04T03:39:05.017Z,18.57
2022-09-04T03:42:10.229Z,18.58
2022-09-04T03:45:02.160Z,18.57
2022-09-04T03:47:53.907Z,18.62
2022-09-04T03:50:49.324Z,18.58
2022-09-04T03:54:02.036Z,18.59
2022-09-04T03:57:10.705Z,18.55
2022-09-04T03:59:59.801Z,18.59
2022-09-04T04:03:02.982Z,18.57
2022-09-04T04:06:02.566Z,18.56
2022-09-04T04:09:20.886Z,18.56
2022-09-04T04:12:27.542Z,18.55
2022-09-04T04:15:21.366Z,18.52
2022-09-04T04:18:29.974Z,18.54
2022-09-04T04:21:31.275Z,18.58
2022-09-04T04:25:03.031Z,18.46
2022-09-04T04:28:07.245Z,18.49
2022-09-04T04:30:54.689Z,18.43
2022-09-04T04:33:49.804Z,18.54
2022-09-04T04:37:11.252Z,18.49
2022-09-04T04:40:06.072Z,18.44
2022-09-04T04:43:20.140Z,18.51
2022-09-04T04:46:24.862Z,18.49
2022-09-04T04:49:37.234Z,18.50
2022-09-04T04:52:55.833Z,18.46
2022-09-04T04:56:04.747Z,18.49
2022-09-04T04:58:54.000Z,18.43
2022-09-04T05:02:07.877Z,18.48
2022-09-04T05:05:02.597Z,18.51
2022-09-04T05:08:07.577Z,18.56
2022-09-04T05:11:06.392Z,18.55
2022-09-04T05:14:20.802Z,18.50
2022-09-04T05:17:25.203Z,18.38
2022-09-04T05:20:29.427Z,18.28
2022-09-04T05:23:39.783Z,18.41
2022-09-04T05:26:44.368Z,18.41
2022-09-04T05:29:47.469Z,18.49
2022-09-04T05:32:38.068Z,18.42
2022-09-04T05:35:45.010Z,18.56
2022-09-04T05:38:59.498Z,18.61
2022-09-04T05:42:06.752Z,18.62
2022-09-04T05:44:57.412Z,18.74
2022-09-04T05:48:27.301Z,18.66
2022-09-04T05:51:42.089Z,18.81
2022-09-04T05:54:45.807Z,18.80
2022-09-04T05:57:53.020Z,18.88
2022-09-04T06:01:08.143Z,18.88
2022-09-04T06:04:19.316Z,18.79
2022-09-04T06:07:13.788Z,19.08
2022-09-04T06:10:03.162Z,19.15
2022-09-04T06:13:07.537Z,19.14
2022-09-04T06:16:02.459Z,19.10
2022-09-04T06:19:15.096Z,19.17
2022-09-04T06:22:17.374Z,19.28
2022-09-04T06:25:06.096Z,19.22
2022-09-04T06:28:13.253Z,19.32
2022-09-04T06:31:21.220Z,19.37
2022-09-04T06:34:39.948Z,19.40
2022-09-04T06:37:36.510Z,19.43
2022-09-04T06:41:00.174Z,19.46
2022-09-04T06:43:58.088Z,19.55
2022-09-04T06:46:56.608Z,19.48
2022-09-04T06:50:11.675Z,19.62
2022-09-04T06:53:01.002Z,19.74
2022-09-04T06:56:07.118Z,19.69
2022-09-04T06:59:01.085Z,19.84
2022-09-04T07:02:17.620Z,19.77
2022-09-04T07:05:22.135Z,19.79
2022-09-04T07:08:08.073Z,20.04
2022-09-04T07:11:20.669Z,20.04
2022-09-04T07:14:29.653Z,20.17
2022-09-04T07:17:34.837Z,20.20
2022-09-04T07:20:30.023Z,20.37
2022-09-04T07:23:20.994Z,20.44
2022-09-04T07:26:13.451Z,20.51
2022-09-04T07:28:59.404Z,20.38
2022-09-04T07:32:07.228Z,20.64
2022-09-04T07:35:03.126Z,20.62
2022-09-04T07:37:58.587Z,20.78
2022-09-04T07:41:09.321Z,20.67
2022-09-04T07:44:23.475Z,20.80
2022-09-04T07:47:16.538Z,20.82
2022-09-04T07:50:22.846Z,20.92
2022-09-04T07:53:27.206Z,20.98
2022-09-04T07:56:31.721Z,21.03
2022-09-04T08:15:28.791Z,19.97
2022-09-04T08:18:36.713Z,20.16
2022-09-04T08:21:31.435Z,20.46
2022-09-04T08:24:36.146Z,20.80
2022-09-04T08:27:44.418Z,21.08
2022-09-04T08:30:39.934Z,21.27
2022-09-04T08:33:38.214Z,21.58
2022-09-04T08:36:42.361Z,21.80
2022-09-04T08:40:11.443Z,21.90
2022-09-04T08:43:06.557Z,22.11
2022-09-04T08:46:11.704Z,22.11
2022-09-04T08:49:17.117Z,22.24
2022-09-04T08:52:40.916Z,22.24
2022-09-04T08:55:50.397Z,22.39
2022-09-04T08:59:04.879Z,22.39
2022-09-04T09:02:06.014Z,22.57
2022-09-04T09:05:28.405Z,22.64
2022-09-04T09:08:14.347Z,22.84
2022-09-04T09:11:25.377Z,22.86
2022-09-04T09:14:41.966Z,22.95
2022-09-04T09:17:54.220Z,23.02
2022-09-04T09:20:45.438Z,23.21
2022-09-04T09:23:56.446Z,23.30
2022-09-04T09:26:55.507Z,23.39
2022-09-04T09:30:00.241Z,23.47
2022-09-04T09:33:03.875Z,23.49
2022-09-04T09:35:57.948Z,23.65
2022-09-04T09:39:36.742Z,23.65
2022-09-04T09:42:31.554Z,23.87
2022-09-04T09:45:38.289Z,23.98
2022-09-04T09:48:30.535Z,24.17
2022-09-04T09:51:31.506Z,24.16
2022-09-04T09:54:23.707Z,24.44
2022-09-04T09:57:33.972Z,24.59
2022-09-04T10:00:23.710Z,24.64
2022-09-04T10:03:51.907Z,24.63
2022-09-04T10:06:56.679Z,24.84
2022-09-04T10:10:30.324Z,24.72
2022-09-04T10:13:28.292Z,24.87
2022-09-04T10:16:46.125Z,25.20
2022-09-04T10:20:08.749Z,25.24
2022-09-04T10:23:07.697Z,25.49
2022-09-04T10:26:15.641Z,25.53
2022-09-04T10:29:14.098Z,25.76
2022-09-04T10:32:09.407Z,25.87
2022-09-04T10:35:25.475Z,25.78
2022-09-04T10:38:20.827Z,25.67
2022-09-04T10:41:39.537Z,25.90
2022-09-04T10:44:40.267Z,26.04
2022-09-04T10:47:41.430Z,26.11
2022-09-04T10:51:08.257Z,26.25
2022-09-04T10:54:30.418Z,25.66
2022-09-04T10:57:44.150Z,26.24
2022-09-04T11:00:50.602Z,26.29
2022-09-04T11:04:03.397Z,26.36
2022-09-04T11:06:58.419Z,26.47
2022-09-04T11:09:59.637Z,26.55
2022-09-04T11:12:45.370Z,26.75
2022-09-04T11:16:30.056Z,26.69
2022-09-04T11:19:37.573Z,26.75
2022-09-04T11:22:34.538Z,26.88
2022-09-04T11:25:44.974Z,26.65
2022-09-04T11:28:46.738Z,26.80
2022-09-04T11:32:21.851Z,26.71
2022-09-04T11:35:46.194Z,26.94
2022-09-04T11:38:44.143Z,27.06
2022-09-04T11:41:58.773Z,27.04
2022-09-04T11:45:17.246Z,26.89
2022-09-04T11:48:26.496Z,27.03
2022-09-04T11:51:33.160Z,27.28
2022-09-04T11:55:14.187Z,27.39
2022-09-04T11:58:46.740Z,27.45
2022-09-04T12:01:35.142Z,27.65
2022-09-04T12:04:42.770Z,27.63
2022-09-04T12:07:58.015Z,27.81
2022-09-04T12:10:59.510Z,27.68
2022-09-04T12:14:30.153Z,27.91
2022-09-04T12:17:34.608Z,27.99
2022-09-04T12:20:51.397Z,28.06
2022-09-04T12:24:14.382Z,28.04
2022-09-04T12:27:21.854Z,28.10
2022-09-04T12:30:23.705Z,28.05
2022-09-04T12:33:34.660Z,28.09
2022-09-04T12:36:48.424Z,27.98
2022-09-04T12:40:04.163Z,27.98
2022-09-04T12:43:01.227Z,28.04
2022-09-04T12:46:06.118Z,28.06
2022-09-04T12:49:04.367Z,28.10
2022-09-04T12:52:27.005Z,28.13
2022-09-04T12:55:19.518Z,28.24
2022-09-04T12:58:08.165Z,28.23
2022-09-04T13:01:45.663Z,28.46
2022-09-04T13:04:44.778Z,28.55
2022-09-04T13:07:58.749Z,28.30
2022-09-04T13:11:03.619Z,28.52
2022-09-04T13:14:11.270Z,28.60
2022-09-04T13:17:16.869Z,28.67
2022-09-04T13:20:20.536Z,28.74
2022-09-04T13:23:39.132Z,28.67
2022-09-04T13:27:07.917Z,28.72
2022-09-04T13:30:09.664Z,28.64
2022-09-04T13:33:20.712Z,28.77
2022-09-04T13:36:22.314Z,28.96
2022-09-04T13:39:19.565Z,28.95
2022-09-04T13:42:28.572Z,28.78
2022-09-04T13:45:23.222Z,28.91
2022-09-04T13:48:20.237Z,28.73
2022-09-04T13:51:29.994Z,28.53
2022-09-04T13:54:21.467Z,28.51
2022-09-04T13:57:28.792Z,27.21
2022-09-04T14:00:17.094Z,27.93
2022-09-04T14:03:07.268Z,27.69
2022-09-04T14:05:53.397Z,27.65
2022-09-04T14:08:39.962Z,27.49
2022-09-04T14:11:58.322Z,27.04
2022-09-04T14:15:07.695Z,27.10
2022-09-04T14:18:14.085Z,26.90
2022-09-04T14:21:33.334Z,26.53
2022-09-04T14:24:34.559Z,26.43
2022-09-04T14:27:35.421Z,26.34
2022-09-04T14:30:23.079Z,26.16
2022-09-04T14:33:19.420Z,26.06
2022-09-04T14:36:43.213Z,25.90
2022-09-04T14:39:35.639Z,25.82
2022-09-04T14:42:46.112Z,25.76
2022-09-04T14:45:53.221Z,25.75
2022-09-04T14:48:42.057Z,25.67
2022-09-04T14:51:28.873Z,25.54
2022-09-04T14:54:30.942Z,25.32
2022-09-04T14:57:22.888Z,25.47
2022-09-04T15:00:09.587Z,25.33
2022-09-04T15:02:58.724Z,25.20
2022-09-04T15:05:56.770Z,25.02
2022-09-04T15:08:44.388Z,25.00
2022-09-04T15:11:33.442Z,24.79
2022-09-04T15:14:34.370Z,24.81
2022-09-04T15:17:28.678Z,24.59
2022-09-04T15:20:36.127Z,24.54
2022-09-04T15:23:55.949Z,24.31
2022-09-04T15:26:51.466Z,24.36
2022-09-04T15:29:38.496Z,24.23
2022-09-04T15:32:26.799Z,23.13
2022-09-04T15:35:28.347Z,23.31
2022-09-04T15:38:27.370Z,23.56
2022-09-04T15:41:27.485Z,23.53
2022-09-04T15:44:40.868Z,23.45
2022-09-04T15:47:55.838Z,23.30
2022-09-04T15:51:19.029Z,23.35
2022-09-04T15:54:07.826Z,23.36
2022-09-04T15:57:08.581Z,23.24
2022-09-04T16:00:26.446Z,23.17
2022-09-04T16:03:29.186Z,23.13
2022-09-04T16:06:20.656Z,23.11
2022-09-04T16:09:29.348Z,22.97
2022-09-04T16:12:26.438Z,23.11
2022-09-04T16:15:23.018Z,23.00
2022-09-04T16:18:39.820Z,22.94
2022-09-04T16:21:43.457Z,22.89
2022-09-04T16:24:35.636Z,22.94
2022-09-04T16:27:24.573Z,22.81
2022-09-04T16:30:26.493Z,22.83
2022-09-04T16:33:27.873Z,22.81
2022-09-04T16:36:17.081Z,22.86
2022-09-04T16:39:23.373Z,22.79
2022-09-04T16:42:21.877Z,22.76
2022-09-04T16:45:15.965Z,22.75
2022-09-04T16:48:33.540Z,22.72
2022-09-04T16:51:41.507Z,22.73
2022-09-04T16:54:35.563Z,22.63
2022-09-04T16:57:29.913Z,22.50
2022-09-04T17:00:17.696Z,22.60
2022-09-04T17:03:19.157Z,22.58
2022-09-04T17:06:18.813Z,22.52
2022-09-04T17:09:21.308Z,22.42
2022-09-04T17:12:40.576Z,22.36
2022-09-04T17:15:37.263Z,22.19
2022-09-04T17:18:25.000Z,21.97
2022-09-04T17:25:47.190Z,22.19
2022-09-04T17:29:03.745Z,22.21
2022-09-04T17:29:10.936Z,22.06
2022-09-04T17:31:45.581Z,22.14
2022-09-04T17:40:44.531Z,22.10
2022-09-04T17:40:55.715Z,22.10
2022-09-04T17:41:39.509Z,22.10
2022-09-04T17:44:35.524Z,22.12
2022-09-04T17:47:32.316Z,22.12
2022-09-04T17:50:22.619Z,22.12
2022-09-04T17:53:20.016Z,22.13
2022-09-04T17:56:23.029Z,22.14
2022-09-04T17:59:23.270Z,22.15
2022-09-04T18:02:23.387Z,22.14
2022-09-04T18:05:13.374Z,22.15
2022-09-04T18:08:11.233Z,22.10
2022-09-04T18:11:01.093Z,22.17
2022-09-04T18:14:32.081Z,22.09
2022-09-04T18:17:29.267Z,22.18
2022-09-04T18:20:29.510Z,22.13
2022-09-04T18:23:51.649Z,22.19
2022-09-04T18:26:40.530Z,22.05
2022-09-04T18:30:51.879Z,22.11
2022-09-04T18:37:12.565Z,22.15
2022-09-04T18:37:16.622Z,22.22
2022-09-04T18:39:38.794Z,22.24
2022-09-04T18:50:28.772Z,22.25
2022-09-04T18:50:29.202Z,22.23
2022-09-04T18:50:30.654Z,22.14
2022-09-04T18:52:16.040Z,22.23
2022-09-04T18:55:09.123Z,22.19
2022-09-04T18:57:55.921Z,22.23
2022-09-04T19:01:20.469Z,22.16
2022-09-04T19:04:31.846Z,22.11
2022-09-04T19:07:34.508Z,22.17
2022-09-04T19:10:25.786Z,22.15
2022-09-04T19:13:22.632Z,22.05
2022-09-04T19:16:11.896Z,21.95
2022-09-04T19:19:17.162Z,22.19
2022-09-04T19:22:21.453Z,22.08
2022-09-04T19:25:22.906Z,22.13
2022-09-04T19:28:13.782Z,22.06
2022-09-04T19:31:06.302Z,21.97
2022-09-04T19:34:23.632Z,21.82
2022-09-04T19:38:34.036Z,21.92
2022-09-04T19:46:00.738Z,21.91
2022-09-04T19:46:17.657Z,21.72
2022-09-04T19:47:27.362Z,21.79
2022-09-04T19:53:19.219Z,21.86
2022-09-04T19:53:46.960Z,21.79
2022-09-04T19:57:31.472Z,21.76
2022-09-04T20:00:38.238Z,21.77
2022-09-04T20:03:33.808Z,21.73
2022-09-04T20:06:24.692Z,21.76
2022-09-04T20:09:28.653Z,21.76
2022-09-04T20:12:34.186Z,21.62
2022-09-04T20:15:25.974Z,21.68
2022-09-04T20:18:26.453Z,21.69
2022-09-04T20:21:24.185Z,21.67
2022-09-04T20:24:19.339Z,21.56
2022-09-04T20:27:20.409Z,21.68
2022-09-04T20:30:32.919Z,21.62
2022-09-04T20:33:24.573Z,21.68
2022-09-04T20:36:12.943Z,21.36
2022-09-04T20:39:24.103Z,21.55
2022-09-04T20:42:22.462Z,21.59
2022-09-04T20:48:07.742Z,21.61
2022-09-04T20:52:50.064Z,21.60
2022-09-04T20:52:51.140Z,21.43
2022-09-04T20:54:59.032Z,21.30
2022-09-04T21:03:08.923Z,21.46
2022-09-04T21:03:21.364Z,20.84
2022-09-04T21:04:53.494Z,20.50
2022-09-04T21:07:47.563Z,21.12
2022-09-04T21:10:49.140Z,21.20
2022-09-04T21:13:48.077Z,20.59
2022-09-04T21:16:55.914Z,19.62
2022-09-04T21:19:54.241Z,20.58
2022-09-04T21:22:48.656Z,20.86
2022-09-04T21:25:40.894Z,20.79
2022-09-04T21:28:30.908Z,20.87
2022-09-04T21:31:43.335Z,21.04
2022-09-04T21:35:02.129Z,20.95
2022-09-04T21:37:58.225Z,21.08
2022-09-04T21:41:02.744Z,21.10
2022-09-04T21:43:48.821Z,21.17
2022-09-04T21:46:58.386Z,21.12
2022-09-04T21:50:23.057Z,21.11
2022-09-04T21:53:45.723Z,21.13
2022-09-04T22:01:39.584Z,21.15
2022-09-04T22:02:35.465Z,21.15
2022-09-04T22:03:44.509Z,21.16
2022-09-04T22:10:10.183Z,21.13
2022-09-04T22:13:41.297Z,21.15
2022-09-04T22:13:50.156Z,21.13
2022-09-04T22:16:42.537Z,21.06
2022-09-04T22:19:47.090Z,21.14
2022-09-04T22:22:38.876Z,21.16
2022-09-04T22:25:39.853Z,20.99
2022-09-04T22:28:41.322Z,21.08
2022-09-04T22:31:30.348Z,21.17
2022-09-04T22:34:40.636Z,21.03
2022-09-04T22:37:51.294Z,21.01
2022-09-04T22:40:56.797Z,21.14
2022-09-04T22:43:47.588Z,21.02
2022-09-04T22:46:46.471Z,21.13
2022-09-04T22:49:54.419Z,20.93
2022-09-04T22:53:03.687Z,20.86
2022-09-04T22:56:24.735Z,20.98
2022-09-04T22:59:30.619Z,21.02
2022-09-04T23:03:07.733Z,20.98
2022-09-04T23:07:43.752Z,20.96
2022-09-04T23:13:48.740Z,20.80
2022-09-04T23:14:00.809Z,20.98
2022-09-04T23:16:01.698Z,20.96
2022-09-04T23:23:15.643Z,20.85
2022-09-04T23:26:50.722Z,20.66
2022-09-04T23:27:00.997Z,20.56
2022-09-04T23:30:27.101Z,20.55
2022-09-04T23:33:29.359Z,20.47
2022-09-04T23:36:51.052Z,20.50
2022-09-04T23:39:43.390Z,20.58
2022-09-04T23:43:03.254Z,20.59
2022-09-04T23:46:18.511Z,20.21
2022-09-04T23:49:32.121Z,20.56
2022-09-04T23:52:48.792Z,20.50
2022-09-04T23:55:59.562Z,20.40
2022-09-04T23:59:04.207Z,20.37
